sensor_id;sensor_type;location;lat;lon;timestamp;temperature;humidity
7048;DHT22;3565;53.254;10.352;2022-08-04T00:04:53;22.20;99.90
7048;DHT22;3565;53.254;10.352;2022-08-04T00:07:25;22.20;99.90
7048;DHT22;3565;53.254;10.352;2022-08-04T00:12:47;22.10;99.90
7048;DHT22;3565;53.254;10.352;2022-08-04T00:15:17;22.10;99.90
7048;DHT22;3565;53.254;10.352;2022-08-04T00:17:50;22.20;99.90
7048;DHT22;3565;53.254;10.352;2022-08-04T00:20:21;22.20;99.90
7048;DHT22;3565;53.254;10.352;2022-08-04T00:22:52;22.10;99.90
7048;DHT22;3565;53.254;10.352;2022-08-04T00:25:22;22.00;99.90
7048;DHT22;3565;53.254;10.352;2022-08-04T00:27:54;22.00;99.90
7048;DHT22;3565;53.254;10.352;2022-08-04T00:30:24;21.90;99.90
7048;DHT22;3565;53.254;10.352;2022-08-04T00:32:55;21.80;99.90
7048;DHT22;3565;53.254;10.352;2022-08-04T00:35:25;21.70;99.90
7048;DHT22;3565;53.254;10.352;2022-08-04T00:37:57;21.70;99.90
7048;DHT22;3565;53.254;10.352;2022-08-04T00:40:39;21.60;99.90
7048;DHT22;3565;53.254;10.352;2022-08-04T00:43:12;21.70;99.90
7048;DHT22;3565;53.254;10.352;2022-08-04T00:52:06;21.60;99.90
7048;DHT22;3565;53.254;10.352;2022-08-04T00:54:41;21.50;99.90
7048;DHT22;3565;53.254;10.352;2022-08-04T01:00:06;21.40;99.90
7048;DHT22;3565;53.254;10.352;2022-08-04T01:02:45;21.40;99.90
7048;DHT22;3565;53.254;10.352;2022-08-04T01:05:14;21.40;99.90
7048;DHT22;3565;53.254;10.352;2022-08-04T01:07:57;21.40;99.90
7048;DHT22;3565;53.254;10.352;2022-08-04T01:10:25;21.30;99.90
7048;DHT22;3565;53.254;10.352;2022-08-04T01:13:05;21.20;99.90
7048;DHT22;3565;53.254;10.352;2022-08-04T01:15:39;21.00;99.90
7048;DHT22;3565;53.254;10.352;2022-08-04T01:18:08;20.90;99.90
7048;DHT22;3565;53.254;10.352;2022-08-04T01:20:44;20.80;99.90
7048;DHT22;3565;53.254;10.352;2022-08-04T01:29:15;20.60;99.90
7048;DHT22;3565;53.254;10.352;2022-08-04T01:32:01;20.50;99.90
7048;DHT22;3565;53.254;10.352;2022-08-04T01:34:35;20.50;99.90
7048;DHT22;3565;53.254;10.352;2022-08-04T01:37:18;20.50;99.90
7048;DHT22;3565;53.254;10.352;2022-08-04T01:39:56;20.50;99.90
7048;DHT22;3565;53.254;10.352;2022-08-04T01:42:22;20.50;99.90
7048;DHT22;3565;53.254;10.352;2022-08-04T01:44:55;20.50;99.90
7048;DHT22;3565;53.254;10.352;2022-08-04T01:47:28;20.50;99.90
7048;DHT22;3565;53.254;10.352;2022-08-04T01:50:05;20.60;99.90
7048;DHT22;3565;53.254;10.352;2022-08-04T01:52:31;20.60;99.90
7048;DHT22;3565;53.254;10.352;2022-08-04T01:55:04;20.60;99.90
7048;DHT22;3565;53.254;10.352;2022-08-04T01:57:34;20.60;99.90
7048;DHT22;3565;53.254;10.352;2022-08-04T02:00:08;20.60;99.90
7048;DHT22;3565;53.254;10.352;2022-08-04T02:02:38;20.60;99.90
7048;DHT22;3565;53.254;10.352;2022-08-04T02:05:10;20.60;99.90
7048;DHT22;3565;53.254;10.352;2022-08-04T02:07:46;20.70;99.90
7048;DHT22;3565;53.254;10.352;2022-08-04T02:10:20;20.60;99.90
7048;DHT22;3565;53.254;10.352;2022-08-04T02:12:55;20.60;99.90
7048;DHT22;3565;53.254;10.352;2022-08-04T02:15:29;20.60;99.90
7048;DHT22;3565;53.254;10.352;2022-08-04T02:18:03;20.60;99.90
7048;DHT22;3565;53.254;10.352;2022-08-04T02:20:36;20.50;99.90
7048;DHT22;3565;53.254;10.352;2022-08-04T02:23:08;20.50;99.90
7048;DHT22;3565;53.254;10.352;2022-08-04T02:25:42;20.40;99.90
7048;DHT22;3565;53.254;10.352;2022-08-04T02:28:21;20.40;99.90
7048;DHT22;3565;53.254;10.352;2022-08-04T02:31:01;20.40;99.90
7048;DHT22;3565;53.254;10.352;2022-08-04T02:33:37;20.30;99.90
7048;DHT22;3565;53.254;10.352;2022-08-04T02:36:09;20.40;99.90
7048;DHT22;3565;53.254;10.352;2022-08-04T02:38:52;20.30;99.90
7048;DHT22;3565;53.254;10.352;2022-08-04T02:41:20;20.30;99.90
7048;DHT22;3565;53.254;10.352;2022-08-04T02:43:50;20.30;99.90
7048;DHT22;3565;53.254;10.352;2022-08-04T02:46:21;20.30;99.90
7048;DHT22;3565;53.254;10.352;2022-08-04T02:48:52;20.20;99.90
7048;DHT22;3565;53.254;10.352;2022-08-04T02:51:25;20.20;99.90
7048;DHT22;3565;53.254;10.352;2022-08-04T02:53:57;20.20;99.90
7048;DHT22;3565;53.254;10.352;2022-08-04T02:56:29;20.20;99.90
7048;DHT22;3565;53.254;10.352;2022-08-04T02:59:01;20.20;99.90
7048;DHT22;3565;53.254;10.352;2022-08-04T03:01:30;20.10;99.90
7048;DHT22;3565;53.254;10.352;2022-08-04T03:04:34;20.10;99.90
7048;DHT22;3565;53.254;10.352;2022-08-04T03:10:27;20.00;99.90
7048;DHT22;3565;53.254;10.352;2022-08-04T03:13:38;20.00;99.90
7048;DHT22;3565;53.254;10.352;2022-08-04T03:16:37;19.90;99.90
7048;DHT22;3565;53.254;10.352;2022-08-04T03:29:01;19.80;99.90
7048;DHT22;3565;53.254;10.352;2022-08-04T03:32:05;19.70;99.90
7048;DHT22;3565;53.254;10.352;2022-08-04T03:34:52;19.70;99.90
7048;DHT22;3565;53.254;10.352;2022-08-04T03:37:37;19.70;99.90
7048;DHT22;3565;53.254;10.352;2022-08-04T03:40:39;19.70;99.90
7048;DHT22;3565;53.254;10.352;2022-08-04T03:43:33;19.70;99.90
7048;DHT22;3565;53.254;10.352;2022-08-04T03:53:00;19.60;99.90
7048;DHT22;3565;53.254;10.352;2022-08-04T03:55:59;19.60;99.90
7048;DHT22;3565;53.254;10.352;2022-08-04T03:58:58;19.60;99.90
7048;DHT22;3565;53.254;10.352;2022-08-04T04:01:42;19.60;99.90
7048;DHT22;3565;53.254;10.352;2022-08-04T04:11:06;19.60;99.90
7048;DHT22;3565;53.254;10.352;2022-08-04T04:13:47;19.60;99.90
7048;DHT22;3565;53.254;10.352;2022-08-04T04:16:36;19.60;99.90
7048;DHT22;3565;53.254;10.352;2022-08-04T04:19:29;19.60;99.90
7048;DHT22;3565;53.254;10.352;2022-08-04T04:22:10;19.70;99.90
7048;DHT22;3565;53.254;10.352;2022-08-04T04:28:24;19.70;99.90
7048;DHT22;3565;53.254;10.352;2022-08-04T04:30:57;19.70;99.90
7048;DHT22;3565;53.254;10.352;2022-08-04T04:33:34;19.70;99.90
7048;DHT22;3565;53.254;10.352;2022-08-04T04:36:08;19.80;99.90
7048;DHT22;3565;53.254;10.352;2022-08-04T04:39:05;19.80;99.90
7048;DHT22;3565;53.254;10.352;2022-08-04T04:42:00;19.80;99.90
7048;DHT22;3565;53.254;10.352;2022-08-04T04:44:50;19.80;99.90
7048;DHT22;3565;53.254;10.352;2022-08-04T04:47:36;19.90;99.90
7048;DHT22;3565;53.254;10.352;2022-08-04T04:49:58;19.90;99.90
7048;DHT22;3565;53.254;10.352;2022-08-04T04:52:33;20.00;99.90
7048;DHT22;3565;53.254;10.352;2022-08-04T04:55:03;20.10;99.90
7048;DHT22;3565;53.254;10.352;2022-08-04T04:57:35;20.20;99.90
7048;DHT22;3565;53.254;10.352;2022-08-04T05:00:08;20.50;99.90
7048;DHT22;3565;53.254;10.352;2022-08-04T05:02:56;20.50;99.90
7048;DHT22;3565;53.254;10.352;2022-08-04T05:05:32;20.60;99.90
7048;DHT22;3565;53.254;10.352;2022-08-04T05:08:29;20.80;99.90
7048;DHT22;3565;53.254;10.352;2022-08-04T05:11:12;20.70;99.90
7048;DHT22;3565;53.254;10.352;2022-08-04T05:13:42;20.90;99.90
7048;DHT22;3565;53.254;10.352;2022-08-04T05:16:16;21.10;99.90
7048;DHT22;3565;53.254;10.352;2022-08-04T05:18:48;21.30;99.90
7048;DHT22;3565;53.254;10.352;2022-08-04T05:21:27;21.50;99.90
7048;DHT22;3565;53.254;10.352;2022-08-04T05:23:59;21.60;99.90
7048;DHT22;3565;53.254;10.352;2022-08-04T05:26:31;21.80;99.90
7048;DHT22;3565;53.254;10.352;2022-08-04T05:29:05;22.00;99.90
7048;DHT22;3565;53.254;10.352;2022-08-04T05:31:36;22.30;99.90
7048;DHT22;3565;53.254;10.352;2022-08-04T05:34:09;22.30;99.90
7048;DHT22;3565;53.254;10.352;2022-08-04T05:36:40;22.40;99.90
7048;DHT22;3565;53.254;10.352;2022-08-04T05:39:13;22.70;99.90
7048;DHT22;3565;53.254;10.352;2022-08-04T05:41:44;23.10;99.90
7048;DHT22;3565;53.254;10.352;2022-08-04T05:44:14;23.10;99.90
7048;DHT22;3565;53.254;10.352;2022-08-04T05:46:46;23.20;99.90
7048;DHT22;3565;53.254;10.352;2022-08-04T05:49:16;23.40;99.90
7048;DHT22;3565;53.254;10.352;2022-08-04T05:51:46;23.20;99.90
7048;DHT22;3565;53.254;10.352;2022-08-04T05:54:17;23.40;99.90
7048;DHT22;3565;53.254;10.352;2022-08-04T05:56:48;23.70;99.90
7048;DHT22;3565;53.254;10.352;2022-08-04T05:59:18;23.80;99.90
7048;DHT22;3565;53.254;10.352;2022-08-04T06:01:51;24.30;99.90
7048;DHT22;3565;53.254;10.352;2022-08-04T06:04:22;24.90;99.90
7048;DHT22;3565;53.254;10.352;2022-08-04T06:06:53;25.20;99.90
7048;DHT22;3565;53.254;10.352;2022-08-04T06:09:22;25.10;99.90
7048;DHT22;3565;53.254;10.352;2022-08-04T06:11:52;25.90;99.90
7048;DHT22;3565;53.254;10.352;2022-08-04T06:14:23;26.50;76.30
7048;DHT22;3565;53.254;10.352;2022-08-04T06:16:53;26.10;97.40
7048;DHT22;3565;53.254;10.352;2022-08-04T06:19:25;26.20;99.90
7048;DHT22;3565;53.254;10.352;2022-08-04T06:21:55;26.00;91.80
7048;DHT22;3565;53.254;10.352;2022-08-04T06:24:28;26.50;82.00
7048;DHT22;3565;53.254;10.352;2022-08-04T06:26:57;27.70;34.60
7048;DHT22;3565;53.254;10.352;2022-08-04T06:29:28;27.90;26.30
7048;DHT22;3565;53.254;10.352;2022-08-04T06:32:01;28.60;4.50
7048;DHT22;3565;53.254;10.352;2022-08-04T06:34:32;28.30;5.80
7048;DHT22;3565;53.254;10.352;2022-08-04T06:37:03;27.40;40.00
7048;DHT22;3565;53.254;10.352;2022-08-04T06:39:33;27.20;53.50
7048;DHT22;3565;53.254;10.352;2022-08-04T06:42:04;27.50;43.70
7048;DHT22;3565;53.254;10.352;2022-08-04T06:44:33;27.60;43.70
7048;DHT22;3565;53.254;10.352;2022-08-04T06:47:04;27.90;49.30
7048;DHT22;3565;53.254;10.352;2022-08-04T06:49:35;28.50;17.90
7048;DHT22;3565;53.254;10.352;2022-08-04T06:52:06;27.80;34.80
7048;DHT22;3565;53.254;10.352;2022-08-04T06:54:35;27.80;41.10
7048;DHT22;3565;53.254;10.352;2022-08-04T06:57:05;28.20;23.80
7048;DHT22;3565;53.254;10.352;2022-08-04T06:59:36;28.20;21.00
7048;DHT22;3565;53.254;10.352;2022-08-04T07:02:06;29.10;11.20
7048;DHT22;3565;53.254;10.352;2022-08-04T07:04:35;29.40;1.00
7048;DHT22;3565;53.254;10.352;2022-08-04T07:07:04;30.10;1.00
7048;DHT22;3565;53.254;10.352;2022-08-04T07:09:34;29.90;1.00
7048;DHT22;3565;53.254;10.352;2022-08-04T07:12:06;31.60;1.00
7048;DHT22;3565;53.254;10.352;2022-08-04T07:14:36;30.80;1.00
7048;DHT22;3565;53.254;10.352;2022-08-04T07:17:08;30.70;1.00
7048;DHT22;3565;53.254;10.352;2022-08-04T07:19:37;30.40;1.00
7048;DHT22;3565;53.254;10.352;2022-08-04T07:22:08;29.70;1.00
7048;DHT22;3565;53.254;10.352;2022-08-04T07:24:38;31.00;1.00
7048;DHT22;3565;53.254;10.352;2022-08-04T07:27:10;30.00;1.00
7048;DHT22;3565;53.254;10.352;2022-08-04T07:29:40;29.90;1.00
7048;DHT22;3565;53.254;10.352;2022-08-04T07:32:15;31.60;1.00
7048;DHT22;3565;53.254;10.352;2022-08-04T07:34:45;32.60;1.00
7048;DHT22;3565;53.254;10.352;2022-08-04T07:37:14;33.40;1.00
7048;DHT22;3565;53.254;10.352;2022-08-04T07:39:44;31.80;1.00
7048;DHT22;3565;53.254;10.352;2022-08-04T07:42:14;31.00;1.00
7048;DHT22;3565;53.254;10.352;2022-08-04T07:44:45;31.10;1.00
7048;DHT22;3565;53.254;10.352;2022-08-04T07:47:14;30.80;1.00
7048;DHT22;3565;53.254;10.352;2022-08-04T07:49:44;31.30;1.00
7048;DHT22;3565;53.254;10.352;2022-08-04T07:52:15;32.00;1.00
7048;DHT22;3565;53.254;10.352;2022-08-04T07:54:44;31.70;1.00
7048;DHT22;3565;53.254;10.352;2022-08-04T07:57:16;33.10;1.00
7048;DHT22;3565;53.254;10.352;2022-08-04T07:59:47;33.90;1.00
7048;DHT22;3565;53.254;10.352;2022-08-04T08:05:07;34.40;1.00
7048;DHT22;3565;53.254;10.352;2022-08-04T08:07:38;35.20;1.00
7048;DHT22;3565;53.254;10.352;2022-08-04T08:10:13;34.90;1.00
7048;DHT22;3565;53.254;10.352;2022-08-04T08:12:43;33.50;1.00
7048;DHT22;3565;53.254;10.352;2022-08-04T08:15:14;32.90;1.00
7048;DHT22;3565;53.254;10.352;2022-08-04T08:17:44;32.80;1.00
7048;DHT22;3565;53.254;10.352;2022-08-04T08:20:14;32.30;1.00
7048;DHT22;3565;53.254;10.352;2022-08-04T08:22:43;33.00;1.00
7048;DHT22;3565;53.254;10.352;2022-08-04T08:25:12;32.70;1.00
7048;DHT22;3565;53.254;10.352;2022-08-04T08:27:42;33.50;1.00
7048;DHT22;3565;53.254;10.352;2022-08-04T08:30:13;34.40;1.00
7048;DHT22;3565;53.254;10.352;2022-08-04T08:32:42;35.30;1.00
7048;DHT22;3565;53.254;10.352;2022-08-04T08:35:11;35.70;1.00
7048;DHT22;3565;53.254;10.352;2022-08-04T08:40:39;34.00;1.00
7048;DHT22;3565;53.254;10.352;2022-08-04T08:43:18;34.20;1.00
7048;DHT22;3565;53.254;10.352;2022-08-04T08:55:57;36.00;1.00
7048;DHT22;3565;53.254;10.352;2022-08-04T09:01:48;34.00;1.00
7048;DHT22;3565;53.254;10.352;2022-08-04T09:10:12;35.50;1.00
7048;DHT22;3565;53.254;10.352;2022-08-04T09:12:50;35.20;1.00
7048;DHT22;3565;53.254;10.352;2022-08-04T09:15:29;35.70;1.00
7048;DHT22;3565;53.254;10.352;2022-08-04T09:18:02;34.40;1.00
7048;DHT22;3565;53.254;10.352;2022-08-04T09:20:38;34.70;1.00
7048;DHT22;3565;53.254;10.352;2022-08-04T09:23:16;34.60;1.00
7048;DHT22;3565;53.254;10.352;2022-08-04T09:28:25;34.60;1.00
7048;DHT22;3565;53.254;10.352;2022-08-04T09:30:58;34.80;1.00
7048;DHT22;3565;53.254;10.352;2022-08-04T09:33:33;35.60;1.00
7048;DHT22;3565;53.254;10.352;2022-08-04T09:36:08;35.40;1.00
7048;DHT22;3565;53.254;10.352;2022-08-04T09:38:42;34.80;1.00
7048;DHT22;3565;53.254;10.352;2022-08-04T09:41:20;35.50;1.00
7048;DHT22;3565;53.254;10.352;2022-08-04T09:46:39;35.30;1.00
7048;DHT22;3565;53.254;10.352;2022-08-04T09:49:13;35.30;1.00
7048;DHT22;3565;53.254;10.352;2022-08-04T09:51:55;35.80;1.00
7048;DHT22;3565;53.254;10.352;2022-08-04T09:54:27;36.30;1.00
7048;DHT22;3565;53.254;10.352;2022-08-04T09:57:06;36.60;1.00
7048;DHT22;3565;53.254;10.352;2022-08-04T09:59:35;36.70;1.00
7048;DHT22;3565;53.254;10.352;2022-08-04T10:02:06;36.70;1.00
7048;DHT22;3565;53.254;10.352;2022-08-04T10:04:38;36.40;1.00
7048;DHT22;3565;53.254;10.352;2022-08-04T10:07:37;34.80;1.00
7048;DHT22;3565;53.254;10.352;2022-08-04T10:10:16;34.80;1.00
7048;DHT22;3565;53.254;10.352;2022-08-04T10:18:53;36.00;1.00
7048;DHT22;3565;53.254;10.352;2022-08-04T10:27:01;36.30;1.00
7048;DHT22;3565;53.254;10.352;2022-08-04T10:29:37;36.40;1.00
7048;DHT22;3565;53.254;10.352;2022-08-04T10:32:10;36.90;1.00
7048;DHT22;3565;53.254;10.352;2022-08-04T10:34:42;36.70;1.00
7048;DHT22;3565;53.254;10.352;2022-08-04T10:37:18;36.40;1.00
7048;DHT22;3565;53.254;10.352;2022-08-04T10:39:52;37.10;1.00
7048;DHT22;3565;53.254;10.352;2022-08-04T10:42:44;37.00;1.00
7048;DHT22;3565;53.254;10.352;2022-08-04T10:48:06;35.80;1.00
7048;DHT22;3565;53.254;10.352;2022-08-04T10:50:39;36.00;1.00
7048;DHT22;3565;53.254;10.352;2022-08-04T10:53:12;35.70;1.00
7048;DHT22;3565;53.254;10.352;2022-08-04T10:55:46;35.50;1.00
7048;DHT22;3565;53.254;10.352;2022-08-04T10:58:18;35.30;1.00
7048;DHT22;3565;53.254;10.352;2022-08-04T11:00:48;35.00;1.00
7048;DHT22;3565;53.254;10.352;2022-08-04T11:06:10;36.40;1.00
7048;DHT22;3565;53.254;10.352;2022-08-04T11:08:43;37.00;1.00
7048;DHT22;3565;53.254;10.352;2022-08-04T11:11:15;37.20;1.00
7048;DHT22;3565;53.254;10.352;2022-08-04T11:16:41;37.80;1.00
7048;DHT22;3565;53.254;10.352;2022-08-04T11:24:54;38.00;1.00
7048;DHT22;3565;53.254;10.352;2022-08-04T11:27:28;38.00;1.00
7048;DHT22;3565;53.254;10.352;2022-08-04T11:30:03;37.80;1.00
7048;DHT22;3565;53.254;10.352;2022-08-04T11:32:36;38.40;1.00
7048;DHT22;3565;53.254;10.352;2022-08-04T11:37:56;38.60;1.00
7048;DHT22;3565;53.254;10.352;2022-08-04T11:40:31;39.00;1.00
7048;DHT22;3565;53.254;10.352;2022-08-04T11:43:03;38.50;1.00
7048;DHT22;3565;53.254;10.352;2022-08-04T11:45:35;38.20;1.00
7048;DHT22;3565;53.254;10.352;2022-08-04T11:48:08;38.30;1.00
7048;DHT22;3565;53.254;10.352;2022-08-04T11:50:43;38.20;1.00
7048;DHT22;3565;53.254;10.352;2022-08-04T11:55:53;38.80;1.00
7048;DHT22;3565;53.254;10.352;2022-08-04T11:58:25;37.90;1.00
7048;DHT22;3565;53.254;10.352;2022-08-04T12:55:33;39.70;1.00
7048;DHT22;3565;53.254;10.352;2022-08-04T13:40:27;37.80;1.00
7048;DHT22;3565;53.254;10.352;2022-08-04T13:42:56;38.10;1.00
7048;DHT22;3565;53.254;10.352;2022-08-04T14:03:09;38.80;1.00
7048;DHT22;3565;53.254;10.352;2022-08-04T14:05:39;38.70;1.00
7048;DHT22;3565;53.254;10.352;2022-08-04T14:15:38;37.50;1.00
7048;DHT22;3565;53.254;10.352;2022-08-04T14:23:40;37.10;1.00
7048;DHT22;3565;53.254;10.352;2022-08-04T14:26:21;37.50;1.00
7048;DHT22;3565;53.254;10.352;2022-08-04T14:49:06;40.10;1.00
7048;DHT22;3565;53.254;10.352;2022-08-04T14:51:39;39.30;1.00
7048;DHT22;3565;53.254;10.352;2022-08-04T15:14:18;37.10;1.00
7048;DHT22;3565;53.254;10.352;2022-08-04T15:24:15;36.10;1.00
7048;DHT22;3565;53.254;10.352;2022-08-04T15:29:16;35.70;1.00
7048;DHT22;3565;53.254;10.352;2022-08-04T15:34:16;35.10;1.00
7048;DHT22;3565;53.254;10.352;2022-08-04T17:08:37;26.30;1.00
7048;DHT22;3565;53.254;10.352;2022-08-04T17:11:08;26.20;1.00
7048;DHT22;3565;53.254;10.352;2022-08-04T17:13:39;26.00;1.00
7048;DHT22;3565;53.254;10.352;2022-08-04T17:31:07;25.30;20.50
7048;DHT22;3565;53.254;10.352;2022-08-04T17:36:08;25.00;43.30
7048;DHT22;3565;53.254;10.352;2022-08-04T17:41:09;24.70;54.50
7048;DHT22;3565;53.254;10.352;2022-08-04T17:49:05;25.00;56.50
7048;DHT22;3565;53.254;10.352;2022-08-04T17:56:35;25.90;32.70
7048;DHT22;3565;53.254;10.352;2022-08-04T18:06:53;25.00;58.90
7048;DHT22;3565;53.254;10.352;2022-08-04T18:11:56;25.10;62.20
7048;DHT22;3565;53.254;10.352;2022-08-04T18:19:24;25.00;38.40
7048;DHT22;3565;53.254;10.352;2022-08-04T18:21:54;24.80;56.70
7048;DHT22;3565;53.254;10.352;2022-08-04T18:26:54;24.70;54.80
7048;DHT22;3565;53.254;10.352;2022-08-04T18:34:20;24.00;85.30
7048;DHT22;3565;53.254;10.352;2022-08-04T18:36:49;23.90;89.30
7048;DHT22;3565;53.254;10.352;2022-08-04T18:39:18;23.80;90.80
7048;DHT22;3565;53.254;10.352;2022-08-04T18:41:49;23.70;94.20
7048;DHT22;3565;53.254;10.352;2022-08-04T18:46:47;23.70;93.20
7048;DHT22;3565;53.254;10.352;2022-08-04T18:51:47;23.60;92.60
7048;DHT22;3565;53.254;10.352;2022-08-04T19:01:43;23.40;99.30
7048;DHT22;3565;53.254;10.352;2022-08-04T19:04:13;23.40;99.90
7048;DHT22;3565;53.254;10.352;2022-08-04T19:11:40;23.30;99.90
7048;DHT22;3565;53.254;10.352;2022-08-04T19:16:38;23.30;99.90
7048;DHT22;3565;53.254;10.352;2022-08-04T19:24:05;23.30;99.90
7048;DHT22;3565;53.254;10.352;2022-08-04T19:26:35;23.30;99.90
7048;DHT22;3565;53.254;10.352;2022-08-04T19:29:05;23.40;99.90
7048;DHT22;3565;53.254;10.352;2022-08-04T19:46:29;23.50;99.90
7048;DHT22;3565;53.254;10.352;2022-08-04T19:48:59;23.40;99.90
7048;DHT22;3565;53.254;10.352;2022-08-04T19:54:00;23.20;99.90
7048;DHT22;3565;53.254;10.352;2022-08-04T19:58:57;23.30;99.90
7048;DHT22;3565;53.254;10.352;2022-08-04T20:06:24;23.10;99.90
7048;DHT22;3565;53.254;10.352;2022-08-04T20:08:53;23.10;99.90
7048;DHT22;3565;53.254;10.352;2022-08-04T20:21:16;22.80;99.90
7048;DHT22;3565;53.254;10.352;2022-08-04T20:26:14;22.50;99.90
7048;DHT22;3565;53.254;10.352;2022-08-04T20:41:07;22.20;99.90
7048;DHT22;3565;53.254;10.352;2022-08-04T21:08:52;21.40;99.90
7048;DHT22;3565;53.254;10.352;2022-08-04T21:13:50;21.30;99.90
7048;DHT22;3565;53.254;10.352;2022-08-04T21:21:16;21.30;99.90
7048;DHT22;3565;53.254;10.352;2022-08-04T21:41:07;20.70;99.90
7048;DHT22;3565;53.254;10.352;2022-08-04T22:01:08;20.50;99.90
7048;DHT22;3565;53.254;10.352;2022-08-04T22:03:40;20.50;99.90
7048;DHT22;3565;53.254;10.352;2022-08-04T22:11:22;20.40;99.90
7048;DHT22;3565;53.254;10.352;2022-08-04T22:13:53;20.20;99.90
7048;DHT22;3565;53.254;10.352;2022-08-04T22:26:17;20.20;99.90
7048;DHT22;3565;53.254;10.352;2022-08-04T22:56:19;19.60;99.90
7048;DHT22;3565;53.254;10.352;2022-08-04T22:58:48;19.70;99.90
7048;DHT22;3565;53.254;10.352;2022-08-04T23:03:46;19.50;99.90
7048;DHT22;3565;53.254;10.352;2022-08-04T23:06:17;19.40;99.90
7048;DHT22;3565;53.254;10.352;2022-08-04T23:18:39;19.20;99.90
7048;DHT22;3565;53.254;10.352;2022-08-04T23:28:38;19.30;99.90
7048;DHT22;3565;53.254;10.352;2022-08-04T23:41:06;19.10;99.90
7048;DHT22;3565;53.254;10.352;2022-08-04T23:43:35;19.10;99.90
7048;DHT22;3565;53.254;10.352;2022-08-04T23:46:05;19.10;99.90
